createdAt,value
2023-01-20T00:01:31.148Z,26.58
2023-01-20T00:03:59.857Z,27.77
2023-01-20T00:06:29.675Z,28.80
2023-01-20T00:09:01.572Z,29.05
2023-01-20T00:11:30.998Z,27.02
2023-01-20T00:14:00.968Z,27.80
2023-01-20T00:16:32.099Z,28.77
2023-01-20T00:19:00.513Z,29.67
2023-01-20T00:21:28.873Z,28.58
2023-01-20T00:23:57.997Z,29.30
2023-01-20T00:26:27.790Z,29.40
2023-01-20T00:28:57.743Z,30.23
2023-01-20T00:31:28.521Z,28.60
2023-01-20T00:33:58.606Z,28.00
2023-01-20T00:36:28.560Z,28.95
2023-01-20T00:38:57.011Z,29.33
2023-01-20T00:41:25.422Z,27.80
2023-01-20T00:43:55.242Z,28.33
2023-01-20T00:46:24.195Z,28.67
2023-01-20T00:48:52.465Z,29.33
2023-01-20T00:51:21.044Z,28.33
2023-01-20T00:53:49.443Z,29.10
2023-01-20T00:56:17.777Z,29.70
2023-01-20T00:58:46.452Z,30.05
2023-01-20T01:01:16.372Z,28.38
2023-01-20T01:03:45.573Z,29.65
2023-01-20T01:06:16.177Z,30.20
2023-01-20T01:08:45.754Z,28.77
2023-01-20T01:11:15.351Z,29.98
2023-01-20T01:13:43.866Z,28.92
2023-01-20T01:16:14.535Z,29.83
2023-01-20T01:18:44.930Z,28.92
2023-01-20T01:21:16.820Z,28.27
2023-01-20T01:23:45.645Z,27.83
2023-01-20T01:26:14.672Z,28.83
2023-01-20T01:28:43.280Z,28.45
2023-01-20T01:31:11.919Z,28.60
2023-01-20T01:33:41.000Z,27.15
2023-01-20T01:36:14.758Z,28.27
2023-01-20T01:38:43.384Z,26.73
2023-01-20T01:41:13.753Z,27.55
2023-01-20T01:43:57.476Z,26.77
2023-01-20T01:46:25.732Z,26.58
2023-01-20T01:48:54.604Z,26.77
2023-01-20T01:51:28.644Z,26.50
2023-01-20T01:54:01.403Z,26.75
2023-01-20T01:56:31.465Z,26.67
2023-01-20T01:59:02.945Z,24.95
2023-01-20T02:01:33.324Z,26.10
2023-01-20T02:04:05.432Z,25.15
2023-01-20T02:06:39.828Z,24.73
2023-01-20T02:09:08.250Z,25.40
2023-01-20T02:11:41.768Z,24.88
2023-01-20T02:14:10.745Z,25.25
2023-01-20T02:16:46.188Z,24.15
2023-01-20T02:19:48.284Z,24.60
2023-01-20T02:22:27.247Z,24.88
2023-01-20T02:25:18.187Z,25.25
2023-01-20T02:28:40.314Z,25.20
2023-01-20T02:31:28.375Z,23.15
2023-01-20T02:34:02.278Z,22.60
2023-01-20T02:36:35.551Z,24.48
2023-01-20T02:39:12.844Z,23.95
2023-01-20T02:42:00.035Z,24.25
2023-01-20T02:44:34.007Z,23.70
2023-01-20T02:47:08.601Z,24.95
2023-01-20T02:49:43.284Z,23.20
2023-01-20T02:52:14.677Z,24.10
2023-01-20T02:54:47.598Z,23.35
2023-01-20T02:57:19.058Z,22.90
2023-01-20T02:59:52.530Z,23.05
2023-01-20T03:02:23.992Z,23.63
2023-01-20T03:04:59.266Z,22.80
2023-01-20T03:07:30.281Z,22.75
2023-01-20T03:10:03.006Z,24.08
2023-01-20T03:12:37.348Z,23.13
2023-01-20T03:15:07.484Z,24.02
2023-01-20T03:17:36.459Z,22.73
2023-01-20T03:20:07.258Z,22.20
2023-01-20T03:22:35.611Z,22.50
2023-01-20T03:25:05.698Z,21.90
2023-01-20T03:27:34.329Z,22.20
2023-01-20T03:30:02.815Z,23.02
2023-01-20T03:32:32.260Z,22.25
2023-01-20T03:35:01.175Z,23.75
2023-01-20T03:37:31.106Z,22.38
2023-01-20T03:39:59.649Z,22.30
2023-01-20T03:42:35.220Z,23.00
2023-01-20T03:45:10.131Z,23.10
2023-01-20T03:47:50.160Z,22.10
2023-01-20T03:50:30.274Z,22.77
2023-01-20T03:53:06.924Z,23.58
2023-01-20T03:55:38.996Z,24.02
2023-01-20T03:58:10.830Z,23.92
2023-01-20T04:00:43.671Z,23.33
2023-01-20T04:03:16.437Z,22.35
2023-01-20T04:05:47.409Z,24.00
2023-01-20T04:08:19.472Z,22.45
2023-01-20T04:10:51.267Z,23.02
2023-01-20T04:13:19.520Z,22.73
2023-01-20T04:15:48.636Z,23.80
2023-01-20T04:18:18.453Z,24.92
2023-01-20T04:20:49.618Z,24.63
2023-01-20T04:23:27.184Z,25.02
2023-01-20T04:25:55.611Z,25.42
2023-01-20T04:28:23.826Z,26.10
2023-01-20T04:30:52.153Z,25.23
2023-01-20T04:33:20.978Z,25.73
2023-01-20T04:35:49.370Z,26.45
2023-01-20T04:38:19.085Z,25.30
2023-01-20T04:40:47.882Z,25.42
2023-01-20T04:43:16.939Z,24.95
2023-01-20T04:45:45.276Z,27.13
2023-01-20T04:48:13.892Z,25.70
2023-01-20T04:50:42.453Z,24.85
2023-01-20T04:53:13.872Z,26.02
2023-01-20T04:55:44.016Z,26.40
2023-01-20T04:58:12.226Z,25.70
2023-01-20T05:00:41.460Z,26.33
2023-01-20T05:03:11.592Z,27.50
2023-01-20T05:05:39.899Z,25.85
2023-01-20T05:08:08.127Z,24.85
2023-01-20T05:10:36.807Z,26.35
2023-01-20T05:13:06.648Z,25.92
2023-01-20T05:15:34.917Z,25.00
2023-01-20T05:18:03.247Z,25.35
2023-01-20T05:20:31.429Z,25.65
2023-01-20T05:23:01.376Z,26.25
2023-01-20T05:25:30.404Z,26.10
2023-01-20T05:28:00.465Z,25.65
2023-01-20T05:30:30.400Z,27.23
2023-01-20T05:32:58.847Z,25.65
2023-01-20T05:35:27.267Z,25.70
2023-01-20T05:37:56.019Z,25.80
2023-01-20T05:40:24.512Z,25.73
2023-01-20T05:42:52.701Z,25.15
2023-01-20T05:45:21.080Z,24.77
2023-01-20T05:47:56.429Z,25.08
2023-01-20T05:50:24.862Z,25.00
2023-01-20T05:52:53.159Z,23.35
2023-01-20T05:55:22.360Z,25.48
2023-01-20T05:57:50.643Z,26.33
2023-01-20T06:00:19.937Z,24.08
2023-01-20T06:02:48.276Z,23.55
2023-01-20T06:05:18.352Z,23.27
2023-01-20T06:07:46.601Z,22.38
2023-01-20T06:10:15.002Z,23.00
2023-01-20T06:12:43.609Z,23.38
2023-01-20T06:15:13.059Z,21.58
2023-01-20T06:17:41.562Z,23.42
2023-01-20T06:20:11.418Z,23.08
2023-01-20T06:22:41.008Z,22.23
2023-01-20T06:25:09.978Z,23.00
2023-01-20T06:27:38.418Z,22.10
2023-01-20T06:30:07.551Z,22.50
2023-01-20T06:32:35.833Z,22.60
2023-01-20T06:35:04.014Z,22.98
2023-01-20T06:37:32.401Z,23.00
2023-01-20T06:40:02.150Z,22.83
2023-01-20T06:42:31.916Z,24.23
2023-01-20T06:45:00.147Z,23.90
2023-01-20T06:47:28.383Z,23.48
2023-01-20T06:49:56.627Z,22.88
2023-01-20T06:52:24.883Z,23.20
2023-01-20T06:54:53.176Z,22.92
2023-01-20T06:57:22.833Z,24.13
2023-01-20T06:59:51.021Z,25.08
2023-01-20T07:02:19.673Z,24.65
2023-01-20T07:04:47.933Z,23.70
2023-01-20T07:07:16.116Z,23.55
2023-01-20T07:09:44.755Z,22.73
2023-01-20T07:12:13.148Z,22.90
2023-01-20T07:14:42.691Z,23.60
2023-01-20T07:17:13.691Z,22.90
2023-01-20T07:19:41.961Z,22.63
2023-01-20T07:22:10.218Z,23.05
2023-01-20T07:24:38.800Z,23.52
2023-01-20T07:27:07.148Z,22.45
2023-01-20T07:29:35.312Z,21.98
2023-01-20T07:32:05.268Z,22.40
2023-01-20T07:34:33.483Z,21.88
2023-01-20T07:37:02.442Z,22.88
2023-01-20T07:39:31.286Z,21.55
2023-01-20T07:41:59.656Z,20.67
2023-01-20T07:44:27.916Z,20.90
2023-01-20T07:46:56.430Z,22.42
2023-01-20T07:49:26.065Z,20.83
2023-01-20T07:51:54.518Z,20.50
2023-01-20T07:54:23.228Z,20.35
2023-01-20T07:56:51.419Z,19.75
2023-01-20T07:59:19.889Z,20.33
2023-01-20T08:01:48.357Z,19.52
2023-01-20T08:04:18.040Z,20.75
2023-01-20T08:06:48.245Z,21.58
2023-01-20T08:09:16.946Z,20.90
2023-01-20T08:11:45.128Z,20.05
2023-01-20T08:14:13.382Z,19.95
2023-01-20T08:16:42.061Z,19.77
2023-01-20T08:19:10.330Z,19.42
2023-01-20T08:21:38.742Z,19.98
2023-01-20T08:24:09.051Z,19.27
2023-01-20T08:26:37.610Z,19.45
2023-01-20T08:29:08.034Z,18.10
2023-01-20T08:31:37.282Z,21.27
2023-01-20T08:34:06.491Z,18.63
2023-01-20T08:36:37.205Z,19.40
2023-01-20T08:39:09.382Z,19.20
2023-01-20T08:41:39.778Z,18.13
2023-01-20T08:44:09.089Z,17.63
2023-01-20T08:46:41.488Z,18.42
2023-01-20T08:49:11.038Z,17.48
2023-01-20T08:51:40.471Z,17.67
2023-01-20T08:54:10.566Z,17.65
2023-01-20T08:56:39.333Z,16.27
2023-01-20T08:59:08.441Z,15.90
2023-01-20T09:01:37.921Z,15.30
2023-01-20T09:04:07.625Z,15.15
2023-01-20T09:06:41.666Z,15.77
2023-01-20T09:09:12.526Z,13.65
2023-01-20T09:11:45.067Z,13.38
2023-01-20T09:14:13.328Z,12.27
2023-01-20T09:16:41.563Z,12.45
2023-01-20T09:19:10.029Z,12.52
2023-01-20T09:21:38.203Z,12.15
2023-01-20T09:24:07.523Z,12.10
2023-01-20T09:26:41.818Z,12.15
2023-01-20T09:29:12.904Z,12.05
2023-01-20T09:31:45.169Z,12.15
2023-01-20T09:34:19.674Z,12.65
2023-01-20T09:36:51.785Z,12.93
2023-01-20T09:39:38.203Z,12.32
2023-01-20T09:42:43.577Z,11.63
2023-01-20T09:45:25.024Z,12.30
2023-01-20T09:48:00.218Z,11.95
2023-01-20T09:50:55.096Z,12.23
2023-01-20T09:53:49.877Z,12.38
2023-01-20T09:56:20.586Z,11.90
2023-01-20T09:58:59.000Z,12.45
2023-01-20T10:01:32.796Z,11.43
2023-01-20T10:04:07.569Z,12.35
2023-01-20T10:06:41.479Z,12.23
2023-01-20T10:09:21.345Z,11.98
2023-01-20T10:11:51.949Z,12.07
2023-01-20T10:14:26.737Z,12.02
2023-01-20T10:17:00.733Z,11.82
2023-01-20T10:19:38.209Z,12.25
2023-01-20T10:22:12.637Z,11.88
2023-01-20T10:24:47.697Z,12.50
2023-01-20T10:27:15.892Z,11.80
2023-01-20T10:29:49.167Z,11.13
2023-01-20T10:32:26.159Z,10.65
2023-01-20T10:34:58.606Z,10.93
2023-01-20T10:37:27.648Z,10.60
2023-01-20T10:39:59.996Z,9.57
2023-01-20T10:42:29.311Z,9.98
2023-01-20T10:45:00.987Z,10.15
2023-01-20T10:47:40.423Z,10.88
2023-01-20T10:50:30.412Z,9.68
2023-01-20T10:53:22.633Z,9.02
2023-01-20T10:56:03.674Z,9.90
2023-01-20T10:58:33.798Z,9.20
2023-01-20T11:01:09.308Z,9.57
2023-01-20T11:03:42.183Z,9.20
2023-01-20T11:06:19.304Z,8.40
2023-01-20T11:08:47.806Z,7.82
2023-01-20T11:11:18.757Z,8.05
2023-01-20T11:13:47.651Z,6.97
2023-01-20T11:16:20.344Z,7.30
2023-01-20T11:18:58.437Z,6.87
2023-01-20T11:21:28.111Z,7.07
2023-01-20T11:23:57.073Z,6.97
2023-01-20T11:26:29.114Z,7.55
2023-01-20T11:28:59.712Z,8.15
2023-01-20T11:31:42.521Z,7.57
2023-01-20T11:34:24.302Z,7.32
2023-01-20T11:37:09.608Z,7.20
2023-01-20T11:39:43.869Z,6.72
2023-01-20T11:42:16.601Z,6.45
2023-01-20T11:44:45.481Z,6.63
2023-01-20T11:47:23.977Z,6.90
2023-01-20T11:50:25.015Z,6.35
2023-01-20T11:52:53.962Z,6.78
2023-01-20T11:55:24.229Z,5.80
2023-01-20T11:57:56.155Z,6.35
2023-01-20T12:00:39.113Z,6.50
2023-01-20T12:03:45.684Z,6.78
2023-01-20T12:06:18.564Z,6.30
2023-01-20T12:08:51.708Z,6.20
2023-01-20T12:11:24.612Z,5.82
2023-01-20T12:14:23.300Z,5.95
2023-01-20T12:17:06.784Z,5.88
2023-01-20T12:19:43.548Z,6.30
2023-01-20T12:22:15.438Z,6.05
2023-01-20T12:25:08.565Z,6.47
2023-01-20T12:27:44.006Z,6.28
2023-01-20T12:30:39.138Z,6.13
2023-01-20T12:33:30.666Z,6.18
2023-01-20T12:36:42.522Z,6.32
2023-01-20T12:39:25.846Z,5.90
2023-01-20T12:42:22.655Z,5.25
2023-01-20T12:44:54.806Z,5.78
2023-01-20T12:47:43.477Z,5.22
2023-01-20T12:50:23.526Z,5.57
2023-01-20T12:53:10.839Z,5.80
2023-01-20T12:55:56.960Z,5.60
2023-01-20T12:58:40.015Z,5.07
2023-01-20T13:01:44.009Z,5.47
2023-01-20T13:04:49.798Z,5.00
2023-01-20T13:07:46.058Z,4.03
2023-01-20T13:10:46.355Z,3.85
2023-01-20T13:13:26.516Z,3.47
2023-01-20T13:16:01.754Z,3.22
2023-01-20T13:18:41.857Z,3.10
2023-01-20T13:21:18.841Z,2.85
2023-01-20T13:23:48.337Z,2.85
2023-01-20T13:26:18.965Z,2.83
2023-01-20T13:28:54.158Z,3.35
2023-01-20T13:31:33.995Z,2.90
2023-01-20T13:34:32.639Z,3.15
2023-01-20T13:37:32.332Z,2.78
2023-01-20T13:40:01.244Z,2.67
2023-01-20T13:42:48.881Z,2.75
2023-01-20T13:45:23.798Z,3.10
2023-01-20T13:48:02.339Z,3.10
2023-01-20T13:50:33.658Z,3.28
2023-01-20T13:53:25.224Z,2.33
2023-01-20T13:56:02.059Z,2.45
2023-01-20T13:58:33.723Z,3.30
2023-01-20T14:01:04.380Z,3.05
2023-01-20T14:03:35.194Z,3.13
2023-01-20T14:06:06.094Z,2.55
2023-01-20T14:08:41.890Z,3.13
2023-01-20T14:11:15.106Z,3.53
2023-01-20T14:13:53.515Z,2.80
2023-01-20T14:16:23.932Z,2.92
2023-01-20T14:18:54.378Z,2.92
2023-01-20T14:21:24.310Z,3.05
2023-01-20T14:23:52.930Z,3.35
2023-01-20T14:26:26.218Z,3.25
2023-01-20T14:28:57.301Z,3.42
2023-01-20T14:31:35.507Z,3.42
2023-01-20T14:34:23.105Z,3.45
2023-01-20T14:36:52.872Z,4.15
2023-01-20T14:39:24.421Z,2.90
2023-01-20T14:41:54.496Z,3.55
2023-01-20T14:44:25.860Z,3.25
2023-01-20T14:46:56.980Z,3.70
2023-01-20T14:49:30.497Z,3.83
2023-01-20T14:51:59.456Z,3.05
2023-01-20T14:54:43.788Z,3.47
2023-01-20T14:57:21.230Z,3.97
2023-01-20T15:00:05.672Z,3.55
2023-01-20T15:02:36.206Z,3.58
2023-01-20T15:05:14.098Z,3.72
2023-01-20T15:07:43.028Z,3.53
2023-01-20T15:10:17.373Z,3.97
2023-01-20T15:12:55.985Z,6.38
2023-01-20T15:15:30.812Z,4.78
2023-01-20T15:18:22.256Z,4.60
2023-01-20T15:21:00.885Z,4.40
2023-01-20T15:23:38.403Z,5.38
2023-01-20T15:26:11.484Z,4.57
2023-01-20T15:28:44.272Z,4.40
2023-01-20T15:31:16.674Z,4.40
2023-01-20T15:33:45.885Z,4.97
2023-01-20T15:36:22.805Z,4.13
2023-01-20T15:38:51.920Z,2.80
2023-01-20T15:41:20.882Z,2.60
2023-01-20T15:43:51.442Z,2.97
2023-01-20T15:46:21.477Z,4.10
2023-01-20T15:48:49.831Z,4.55
2023-01-20T15:51:20.126Z,4.30
2023-01-20T15:53:48.951Z,4.47
2023-01-20T15:56:21.405Z,4.22
2023-01-20T15:58:50.635Z,4.60
2023-01-20T16:01:23.897Z,3.90
2023-01-20T16:03:52.927Z,3.80
2023-01-20T16:06:22.091Z,4.20
2023-01-20T16:08:51.520Z,4.28
2023-01-20T16:11:20.921Z,4.38
2023-01-20T16:13:49.663Z,4.78
2023-01-20T16:16:20.606Z,4.72
2023-01-20T16:18:51.052Z,4.68
2023-01-20T16:21:20.607Z,4.45
2023-01-20T16:23:48.797Z,4.72
2023-01-20T16:26:22.935Z,5.25
2023-01-20T16:28:51.486Z,5.78
2023-01-20T16:31:20.928Z,5.78
2023-01-20T16:33:51.000Z,5.15
2023-01-20T16:36:20.993Z,5.57
2023-01-20T16:38:50.064Z,5.18
2023-01-20T16:41:22.552Z,6.25
2023-01-20T16:43:51.962Z,5.78
2023-01-20T16:46:21.659Z,4.53
2023-01-20T16:48:52.030Z,5.25
2023-01-20T16:51:26.234Z,5.30
2023-01-20T16:53:55.092Z,4.20
2023-01-20T16:56:24.904Z,3.28
2023-01-20T16:58:55.007Z,3.45
2023-01-20T17:01:24.854Z,2.47
2023-01-20T17:03:55.885Z,2.63
2023-01-20T17:06:26.442Z,2.30
2023-01-20T17:08:56.458Z,2.85
2023-01-20T17:11:26.669Z,4.32
2023-01-20T17:13:56.204Z,1.58
2023-01-20T17:16:26.131Z,1.20
2023-01-20T17:18:58.537Z,1.60
2023-01-20T17:21:28.857Z,1.80
2023-01-20T17:23:58.685Z,1.70
2023-01-20T17:26:27.239Z,2.00
2023-01-20T17:28:56.460Z,1.80
2023-01-20T17:31:25.447Z,2.70
2023-01-20T17:33:55.486Z,8.95
2023-01-20T17:36:24.054Z,2.70
2023-01-20T17:38:52.256Z,2.05
2023-01-20T17:41:20.758Z,3.05
2023-01-20T17:43:49.300Z,3.47
2023-01-20T17:46:19.501Z,3.53
2023-01-20T17:48:48.723Z,3.03
2023-01-20T17:51:20.391Z,3.50
2023-01-20T17:53:49.587Z,3.67
2023-01-20T17:56:19.726Z,2.92
2023-01-20T17:58:48.358Z,3.20
2023-01-20T18:01:18.706Z,4.90
2023-01-20T18:03:48.610Z,4.53
2023-01-20T18:06:19.949Z,4.80
2023-01-20T18:08:52.475Z,6.05
2023-01-20T18:11:23.027Z,6.00
2023-01-20T18:13:52.689Z,5.72
2023-01-20T18:16:22.629Z,5.55
2023-01-20T18:18:51.550Z,5.45
2023-01-20T18:21:23.196Z,6.00
2023-01-20T18:23:52.773Z,5.22
2023-01-20T18:26:23.410Z,5.20
2023-01-20T18:28:55.443Z,5.95
2023-01-20T18:31:25.763Z,8.20
2023-01-20T18:33:56.048Z,5.78
2023-01-20T18:36:28.011Z,5.82
2023-01-20T18:38:57.821Z,5.25
2023-01-20T18:41:26.869Z,4.07
2023-01-20T18:43:55.325Z,3.83
2023-01-20T18:46:23.527Z,4.53
2023-01-20T18:48:54.590Z,4.03
2023-01-20T18:51:26.183Z,5.45
2023-01-20T18:53:57.200Z,5.85
2023-01-20T18:56:26.490Z,4.72
2023-01-20T18:58:55.885Z,6.70
2023-01-20T19:01:26.374Z,7.80
2023-01-20T19:03:54.636Z,8.75
2023-01-20T19:06:26.474Z,7.65
2023-01-20T19:08:56.442Z,9.15
2023-01-20T19:11:28.143Z,8.57
2023-01-20T19:13:57.055Z,8.43
2023-01-20T19:16:27.539Z,8.50
2023-01-20T19:18:57.497Z,9.27
2023-01-20T19:21:27.662Z,10.25
2023-01-20T19:24:01.084Z,10.90
2023-01-20T19:29:00.150Z,10.30
2023-01-20T19:31:28.511Z,11.07
2023-01-20T19:33:56.821Z,12.32
2023-01-20T19:36:26.652Z,13.30
2023-01-20T19:38:54.932Z,15.68
2023-01-20T19:41:25.801Z,15.77
2023-01-20T19:43:57.265Z,14.63
2023-01-20T19:46:27.315Z,16.05
2023-01-20T19:48:57.424Z,14.73
2023-01-20T19:51:28.008Z,15.30
2023-01-20T19:53:58.642Z,14.07
2023-01-20T19:56:27.915Z,11.57
2023-01-20T19:58:56.878Z,11.40
2023-01-20T20:01:28.564Z,10.85
2023-01-20T20:03:59.155Z,12.48
2023-01-20T20:06:30.764Z,11.68
2023-01-20T20:09:01.164Z,12.68
2023-01-20T20:11:30.302Z,12.40
2023-01-20T20:14:00.032Z,13.30
2023-01-20T20:16:30.621Z,15.73
2023-01-20T20:18:59.547Z,18.63
2023-01-20T20:21:29.965Z,20.58
2023-01-20T20:24:00.626Z,22.13
2023-01-20T20:26:31.227Z,21.38
2023-01-20T20:29:00.779Z,21.67
2023-01-20T20:31:30.092Z,20.15
2023-01-20T20:33:59.464Z,20.17
2023-01-20T20:36:31.326Z,21.42
2023-01-20T20:39:01.173Z,23.17
2023-01-20T20:41:31.778Z,24.63
2023-01-20T20:44:01.602Z,26.30
2023-01-20T20:46:30.707Z,25.45
2023-01-20T20:49:00.962Z,22.30
2023-01-20T20:51:32.402Z,27.40
2023-01-20T20:54:02.365Z,28.38
2023-01-20T20:56:32.669Z,28.33
2023-01-20T20:59:03.331Z,29.25
2023-01-20T21:01:34.227Z,30.20
2023-01-20T21:04:03.159Z,31.52
2023-01-20T21:06:33.814Z,32.30
2023-01-20T21:09:02.125Z,31.73
2023-01-20T21:11:31.023Z,31.55
2023-01-20T21:13:59.634Z,31.92
2023-01-20T21:16:28.244Z,31.75
2023-01-20T21:18:59.302Z,28.80
2023-01-20T21:21:29.076Z,30.45
2023-01-20T21:24:00.046Z,31.27
2023-01-20T21:26:30.727Z,29.33
2023-01-20T21:29:01.857Z,31.70
2023-01-20T21:31:31.855Z,29.75
2023-01-20T21:34:00.773Z,30.15
2023-01-20T21:36:31.326Z,28.23
2023-01-20T21:39:01.445Z,27.83
2023-01-20T21:41:29.680Z,27.40
2023-01-20T21:44:15.656Z,28.02
2023-01-20T21:46:44.090Z,25.38
2023-01-20T21:49:29.764Z,24.13
2023-01-20T21:52:15.793Z,24.63
2023-01-20T21:54:45.993Z,22.13
2023-01-20T21:57:14.569Z,21.05
2023-01-20T21:59:43.435Z,19.20
2023-01-20T22:02:14.335Z,21.25
2023-01-20T22:04:43.234Z,20.38
2023-01-20T22:07:11.736Z,22.10
2023-01-20T22:09:40.291Z,20.80
2023-01-20T22:12:10.142Z,21.00
2023-01-20T22:14:38.431Z,21.00
2023-01-20T22:17:07.640Z,21.50
2023-01-20T22:19:35.873Z,20.50
2023-01-20T22:22:04.718Z,20.17
2023-01-20T22:24:33.112Z,20.75
2023-01-20T22:27:02.484Z,20.77
2023-01-20T22:29:32.091Z,21.95
2023-01-20T22:32:02.658Z,22.25
2023-01-20T22:34:30.931Z,20.70
2023-01-20T22:37:00.552Z,22.38
2023-01-20T22:39:29.434Z,21.13
2023-01-20T22:41:57.642Z,21.02
2023-01-20T22:44:25.871Z,22.30
2023-01-20T22:46:56.209Z,22.33
2023-01-20T22:49:24.530Z,23.73
2023-01-20T22:51:55.851Z,23.00
2023-01-20T22:54:24.166Z,22.92
2023-01-20T22:56:52.353Z,24.75
2023-01-20T22:59:20.740Z,24.58
2023-01-20T23:01:49.242Z,24.73
2023-01-20T23:04:18.866Z,26.27
2023-01-20T23:06:47.192Z,26.33
2023-01-20T23:09:15.612Z,27.05
2023-01-20T23:11:43.856Z,26.48
2023-01-20T23:14:13.564Z,27.38
2023-01-20T23:16:43.262Z,27.48
2023-01-20T23:19:12.591Z,27.02
2023-01-20T23:21:42.304Z,27.90
2023-01-20T23:24:10.784Z,28.95
2023-01-20T23:26:39.030Z,28.30
2023-01-20T23:29:07.323Z,28.17
2023-01-20T23:31:35.811Z,27.55
2023-01-20T23:34:04.154Z,28.85
2023-01-20T23:36:32.725Z,29.48
2023-01-20T23:39:02.531Z,29.05
2023-01-20T23:41:30.805Z,30.58
2023-01-20T23:43:59.253Z,29.45
2023-01-20T23:46:27.795Z,29.75
2023-01-20T23:48:56.145Z,29.33
2023-01-20T23:51:24.665Z,30.33
2023-01-20T23:53:53.158Z,30.05
2023-01-20T23:56:24.705Z,29.92
2023-01-20T23:58:53.410Z,29.23
